Data for 05/31/2015

Time Sea-Level Adjusted Pressure Absolute Pressure Temperature Relative Humidity Dew Point   
(mb) (inHg) (mb) (inHg) (C) (F) (%) (C) (F)
00:05 1020 30.12 849 25.07 11.4 52.4 81 8.3 47
00:10 1020 30.12 849 25.07 11.3 52.4 81 8.2 46.8
00:15 1019 30.09 849 25.07 11.2 52.2 82 8.2 46.8
00:20 1020 30.12 849 25.07 11.2 52.1 82 8.1 46.7
00:25 1020 30.12 849 25.07 11.2 52.1 80 7.8 46.1
00:30 1020 30.12 849 25.07 11.3 52.4 80 8 46.4
00:35 1020 30.12 849 25.07 11.2 52.2 79 7.7 45.9
00:40 1020 30.12 849 25.07 11.2 52.2 78 7.6 45.6
00:45 1020 30.12 849 25.07 11.1 51.9 80 7.8 46
00:50 1020 30.12 849 25.07 10.7 51.2 83 7.9 46.2
00:55 1020 30.12 849 25.07 10.4 50.7 83 7.6 45.7
01:00 1020 30.12 849 25.07 10.4 50.6 83 7.5 45.6
01:05 1020 30.12 849 25.07 10.4 50.7 82 7.4 45.4
01:10 1020 30.12 849 25.07 10.6 51.1 81 7.5 45.4
01:15 1020 30.12 849 25.07 10.7 51.3 82 7.8 46
01:20 1020 30.12 849 25.07 10.5 50.9 82 7.5 45.5
01:25 1019 30.09 849 25.07 10.3 50.6 83 7.5 45.5
01:30 1019 30.09 849 25.07 10.2 50.4 83 7.5 45.5
01:35 1019 30.09 849 25.07 10.2 50.3 83 7.4 45.3
01:40 1019 30.09 849 25.07 10.1 50.1 84 7.4 45.3
01:45 1019 30.09 849 25.07 10.2 50.3 81 7 44.6
01:50 1019 30.09 849 25.07 10.7 51.3 78 7 44.7
01:55 1019 30.09 849 25.07 10.9 51.5 79 7.4 45.4
02:00 1019 30.09 849 25.07 10.5 50.8 82 7.5 45.4
02:05 1019 30.09 849 25.07 10.1 50.3 82 7.3 45.1
02:10 1019 30.09 849 25.07 10 50.1 82 7.2 44.9
02:15 1019 30.09 849 25.07 10.2 50.4 82 7.2 45
02:20 1019 30.09 849 25.07 10.1 50.2 83 7.3 45.2
02:25 1019 30.09 848 25.04 10 50 83 7.2 44.9
02:30 1019 30.09 848 25.04 10.1 50.2 82 7.2 44.9
02:35 1019 30.09 848 25.04 10.2 50.4 81 7.1 44.8
02:40 1019 30.09 848 25.04 10.3 50.5 82 7.2 45
02:45 1019 30.09 848 25.04 10.1 50.2 82 7.2 45
02:50 1019 30.09 848 25.04 10 50 82 7.1 44.8
02:55 1019 30.09 848 25.04 10 49.9 83 7.3 45.1
03:00 1019 30.09 848 25.04 9.8 49.6 84 7.2 45
03:05 1019 30.09 848 25.04 9.7 49.5 84 7.1 44.8
03:10 1019 30.09 848 25.04 9.7 49.4 84 7.1 44.8
03:15 1019 30.09 848 25.04 9.5 49.2 84 7 44.7
03:20 1019 30.09 848 25.04 9.5 49.2 83 6.9 44.3
03:25 1019 30.09 848 25.04 9.8 49.6 82 6.9 44.4
03:30 1019 30.09 848 25.04 10.3 50.5 78 6.6 43.8
03:35 1019 30.09 848 25.04 10.7 51.3 78 7 44.6
03:40 1019 30.09 848 25.04 10.6 51 76 6.6 43.9
03:45 1019 30.09 848 25.04 10.8 51.4 78 7 44.7
03:50 1019 30.09 848 25.04 10.1 50.1 80 6.9 44.4
03:55 1019 30.09 848 25.04 9.5 49.2 83 6.7 44.1
04:00 1019 30.09 848 25.04 9.3 48.7 83 6.6 43.8
04:05 1019 30.09 848 25.04 9 48.3 84 6.4 43.6
04:10 1019 30.09 848 25.04 9.1 48.4 83 6.4 43.5
04:15 1019 30.09 848 25.04 9.3 48.7 82 6.4 43.5
04:20 1019 30.09 848 25.04 9.3 48.7 82 6.3 43.4
04:25 1019 30.09 848 25.04 9.3 48.7 82 6.3 43.4
04:30 1019 30.09 848 25.04 9.1 48.3 83 6.3 43.4
04:35 1019 30.09 848 25.04 8.9 48 83 6.2 43.2
04:40 1019 30.09 848 25.04 8.9 48 84 6.3 43.3
04:45 1019 30.09 848 25.04 8.9 47.9 84 6.2 43.2
04:50 1019 30.09 848 25.04 9.1 48.4 82 6.2 43.1
04:55 1019 30.09 848 25.04 9.3 48.7 82 6.3 43.4
05:00 1019 30.09 848 25.04 9.2 48.5 82 6.4 43.4
05:05 1019 30.09 848 25.04 9.2 48.5 82 6.3 43.3
05:10 1019 30.09 848 25.04 8.9 48 83 6.2 43.2
05:15 1019 30.09 848 25.04 8.8 47.8 83 6 42.8
05:20 1019 30.09 848 25.04 9 48.2 81 5.9 42.6
05:25 1019 30.09 848 25.04 9.2 48.5 79 5.7 42.3
05:30 1019 30.09 848 25.04 9.7 49.4 77 5.9 42.6
05:35 1019 30.09 848 25.04 10 49.9 76 6 42.8
05:40 1019 30.09 848 25.04 10.2 50.3 76 6.2 43.1
05:45 1019 30.09 848 25.04 10.4 50.7 75 6.2 43.2
05:50 1019 30.09 848 25.04 10.5 50.9 75 6.3 43.3
05:55 1019 30.09 848 25.04 10.8 51.4 74 6.3 43.3
06:00 1019 30.09 848 25.04 10.9 51.6 74 6.5 43.7
06:05 1019 30.09 848 25.04 11 51.8 73 6.4 43.6
06:10 1019 30.09 848 25.04 11.2 52.2 74 6.7 44.1
06:15 1019 30.09 848 25.04 11.5 52.6 73 6.9 44.3
06:20 1019 30.09 848 25.04 11.5 52.7 73 6.8 44.3
06:25 1019 30.09 848 25.04 11.7 53 73 7 44.7
06:30 1019 30.09 848 25.04 12 53.6 71 7 44.6
06:35 1019 30.09 848 25.04 12.2 54 71 7.1 44.7
06:40 1019 30.09 848 25.04 12.6 54.6 70 7.3 45.1
06:45 1019 30.09 848 25.04 12.8 55 69 7.3 45.1
06:50 1019 30.09 848 25.04 13.5 56.3 66 7.4 45.3
06:55 1019 30.09 848 25.04 13.6 56.4 69 8 46.4
07:00 1019 30.09 848 25.04 13.9 57 66 7.7 45.8
07:05 1019 30.09 848 25.04 14 57.2 65 7.7 45.8
07:10 1019 30.09 848 25.04 13.9 57 65 7.5 45.6
07:15 1019 30.09 848 25.04 13.9 57.1 66 7.7 45.9
07:20 1019 30.09 848 25.04 13.9 57 67 8 46.4
07:25 1019 30.09 849 25.07 14.1 57.3 66 8 46.3
07:30 1019 30.09 849 25.07 14.3 57.7 65 7.8 46.1
07:35 1019 30.09 849 25.07 14.4 58 66 8.1 46.6
07:40 1019 30.09 849 25.07 14.6 58.2 65 8.1 46.5
07:45 1019 30.09 849 25.07 14.5 58 65 7.9 46.3
07:50 1019 30.09 849 25.07 14.8 58.6 63 7.9 46.2
07:55 1019 30.09 848 25.04 15.6 60.1 59 7.8 46.1
08:00 1019 30.09 849 25.07 16.1 60.9 57 7.7 45.8
08:05 1019 30.09 848 25.04 16.3 61.3 56 7.5 45.6
08:10 1019 30.09 848 25.04 16.4 61.5 57 8 46.5
08:15 1019 30.09 848 25.04 16.6 61.9 56 7.9 46.3
08:20 1019 30.09 848 25.04 16.9 62.4 55 8 46.4
08:25 1019 30.09 848 25.04 16.8 62.3 56 8.1 46.5
08:30 1019 30.09 848 25.04 16.8 62.2 55 7.7 45.8
08:35 1019 30.09 848 25.04 17 62.7 55 8 46.4
08:40 1019 30.09 848 25.04 16.8 62.3 54 7.7 45.8
08:45 1019 30.09 848 25.04 16.9 62.4 54 7.6 45.8
08:50 1019 30.09 848 25.04 17.2 62.9 52 7.4 45.3
08:55 1019 30.09 848 25.04 17.9 64.2 50 7.6 45.6
09:00 1019 30.09 848 25.04 18.7 65.6 48 7.6 45.6
09:05 1019 30.09 848 25.04 18.6 65.5 50 8 46.4
09:10 1019 30.09 848 25.04 19 66.2 49 8.2 46.7
09:15 1019 30.09 848 25.04 19.2 66.5 50 8.7 47.7
09:20 1019 30.09 848 25.04 18.9 66.1 50 8.4 47.1
09:25 1019 30.09 848 25.04 18.5 65.2 53 8.8 47.9
09:30 1019 30.09 848 25.04 18.1 64.6 55 9 48.2
09:35 1019 30.09 848 25.04 18.6 65.5 53 9 48.2
09:40 1019 30.09 848 25.04 19.5 67 51 9.1 48.3
09:45 1019 30.09 848 25.04 19.8 67.7 47 8.4 47
09:50 1019 30.09 848 25.04 20 67.9 42 6.9 44.3
09:55 1019 30.09 848 25.04 20 68 44 7.4 45.4
10:00 1019 30.09 848 25.04 20.3 68.5 43 7.4 45.3
10:05 1019 30.09 848 25.04 20.6 69 41 6.9 44.4
10:10 1019 30.09 848 25.04 21.1 69.9 39 6.8 44.2
10:15 1019 30.09 848 25.04 21.8 71.3 39 7.4 45.3
10:20 1019 30.09 848 25.04 22.2 72 37 7.2 44.9
10:25 1019 30.09 848 25.04 22.4 72.3 38 7.6 45.6
10:30 1019 30.09 848 25.04 22.6 72.7 37 7.4 45.4
10:35 1019 30.09 848 25.04 22.7 72.9 40 8.6 47.5
10:40 1019 30.09 848 25.04 22.6 72.7 40 8.4 47.2
10:45 1019 30.09 848 25.04 22.1 71.8 40 8.2 46.7
10:50 1019 30.09 848 25.04 22.1 71.8 41 8.3 47
10:55 1019 30.09 848 25.04 21.4 70.5 43 8.5 47.3
11:00 1019 30.09 848 25.04 21.9 71.3 41 8 46.5
11:05 1019 30.09 848 25.04 22.1 71.8 41 8.3 47
11:10 1019 30.09 848 25.04 22.5 72.6 38 7.7 45.8
11:15 1019 30.09 848 25.04 22.4 72.3 38 7.5 45.6
11:20 1019 30.09 848 25.04 22 71.6 39 7.7 45.8
11:25 1018 30.06 848 25.04 22.2 71.9 38 7.5 45.6
11:30 1018 30.06 848 25.04 22.3 72.1 38 7.5 45.6
11:35 1018 30.06 848 25.04 22.4 72.4 36 6.8 44.3
11:40 1018 30.06 848 25.04 22.5 72.5 37 7.1 44.8
11:45 1018 30.06 848 25.04 23.5 74.2 32 6 42.7
11:50 1018 30.06 848 25.04 23.8 74.8 33 6.7 44.1
11:55 1018 30.06 848 25.04 23.3 73.9 33 6.5 43.7
12:00 1018 30.06 848 25.04 23.8 74.8 34 7.3 45.2
12:05 1018 30.06 847 25.01 23.6 74.4 32 6.2 43.2
12:10 1018 30.06 847 25.01 23.2 73.8 35 6.9 44.5
12:15 1018 30.06 847 25.01 23.2 73.7 33 6.4 43.5
12:20 1018 30.06 847 25.01 23.6 74.5 32 6.2 43.2
12:25 1018 30.06 847 25.01 23.2 73.8 33 6.1 43
12:30 1018 30.06 847 25.01 23.6 74.6 33 6.5 43.6
12:35 1018 30.06 847 25.01 24 75.1 33 6.8 44.3
12:40 1018 30.06 847 25.01 23.6 74.5 33 6.7 44.1
12:45 1018 30.06 847 25.01 24 75.2 32 6.5 43.8
12:50 1018 30.06 847 25.01 24 75.2 32 6.6 43.9
12:55 1018 30.06 847 25.01 24.1 75.4 32 6.6 43.9
13:00 1018 30.06 847 25.01 24.2 75.6 33 7.3 45.1
13:05 1018 30.06 847 25.01 24.2 75.5 32 6.8 44.3
13:10 1018 30.06 847 25.01 24.2 75.6 32 6.9 44.5
13:15 1018 30.06 847 25.01 24.7 76.5 31 6.7 44.1
13:20 1018 30.06 847 25.01 24.3 75.7 32 6.6 43.9
13:25 1018 30.06 847 25.01 24.6 76.4 32 7.1 44.8
13:30 1018 30.06 847 25.01 24.4 75.9 31 6.4 43.6
13:35 1018 30.06 847 25.01 24.1 75.4 33 6.9 44.4
13:40 1018 30.06 847 25.01 24.6 76.2 31 6.6 43.8
13:45 1018 30.06 847 25.01 24.9 76.9 31 7.1 44.8
13:50 1018 30.06 847 25.01 25.6 78.1 30 6.8 44.3
13:55 1018 30.06 847 25.01 24.9 76.8 32 7.2 45
14:00 1018 30.06 847 25.01 24.2 75.6 32 6.7 44
14:05 1017 30.03 847 25.01 24.5 76.1 32 6.7 44.1
14:10 1017 30.03 847 25.01 25.1 77.2 29 6.3 43.3
14:15 1017 30.03 846 24.98 26.1 79.1 29 6.9 44.4
14:20 1017 30.03 846 24.98 26 78.8 27 5.8 42.5
14:25 1017 30.03 846 24.98 25.9 78.7 27 6 42.8
14:30 1017 30.03 846 24.98 25.5 77.9 30 7.1 44.7
14:35 1017 30.03 846 24.98 24.9 76.9 31 6.8 44.3
14:40 1017 30.03 846 24.98 25.6 78.1 28 5.8 42.4
14:45 1017 30.03 846 24.98 26.4 79.6 28 6.6 43.9
14:50 1017 30.03 846 24.98 26.2 79.1 29 7.2 44.9
14:55 1017 30.03 846 24.98 25.9 78.7 28 6.4 43.5
15:00 1017 30.03 846 24.98 26.1 79.1 27 6.1 43
15:05 1017 30.03 846 24.98 26.8 80.2 27 6.7 44.1
15:10 1017 30.03 846 24.98 27 80.5 25 5.8 42.4
15:15 1017 30.03 846 24.98 26.7 80.1 26 5.8 42.4
15:20 1016 30 846 24.98 26.6 79.8 27 6.1 43
15:25 1016 30 846 24.98 27 80.6 26 6.2 43.1
15:30 1016 30 846 24.98 26.6 79.8 25 5.2 41.4
15:35 1016 30 846 24.98 26.5 79.6 26 5.9 42.6
15:40 1016 30 845 24.95 26 78.8 28 6.2 43.2
15:45 1016 30 845 24.95 26.3 79.4 27 5.9 42.6
15:50 1016 30 845 24.95 27.2 80.9 27 6.6 43.9
15:55 1016 30 845 24.95 26.7 80 27 6.4 43.6
16:00 1016 30 845 24.95 26.5 79.7 27 6.1 43
16:05 1016 30 845 24.95 26.2 79.2 27 5.9 42.6
16:10 1016 30 845 24.95 26.5 79.6 26 5.6 42.1
16:15 1016 30 845 24.95 27 80.6 24 5.3 41.5
16:20 1016 30 845 24.95 27.2 81 26 6.2 43.1
16:25 1016 30 845 24.95 26.4 79.5 25 5.2 41.4
16:30 1016 30 845 24.95 27 80.6 25 5.4 41.8
16:35 1016 30 845 24.95 27.4 81.3 24 5.1 41.2
16:40 1016 30 845 24.95 27.2 81 24 5.1 41.1
16:45 1016 30 845 24.95 26.6 79.9 24 4.9 40.9
16:50 1016 30 845 24.95 26.4 79.6 25 5.3 41.5
16:55 1016 30 845 24.95 26.4 79.6 24 4.6 40.3
17:00 1016 30 845 24.95 25.5 77.8 28 5.6 42.1
17:05 1016 30 845 24.95 25.3 77.5 28 5.7 42.2
17:10 1016 30 845 24.95 25.3 77.5 27 5.1 41.1
17:15 1016 30 845 24.95 24.9 76.9 27 5.1 41.1
17:20 1015 29.97 845 24.95 24.7 76.5 28 5.3 41.5
17:25 1015 29.97 845 24.95 24.8 76.6 29 6 42.8
17:30 1015 29.97 845 24.95 24.6 76.2 30 6.2 43.1
17:35 1015 29.97 845 24.95 24.1 75.3 31 6 42.8
17:40 1015 29.97 845 24.95 23.9 74.9 31 5.8 42.5
17:45 1015 29.97 845 24.95 23.9 75 33 7 44.7
17:50 1015 29.97 844 24.92 23.8 74.9 34 7.3 45.2
17:55 1015 29.97 844 24.92 23.6 74.4 36 8 46.5
18:00 1015 29.97 844 24.92 23.3 74 31 5.6 42.1
18:05 1015 29.97 844 24.92 23.1 73.5 36 7.3 45.1
18:10 1016 30 845 24.95 22.5 72.4 40 8.5 47.4
18:15 1016 30 845 24.95 22 71.6 34 5.7 42.3
18:20 1016 30 845 24.95 22 71.7 32 5 40.9
18:25 1017 30.03 846 24.98 22.1 71.7 34 5.8 42.4
18:30 1017 30.03 846 24.98 22.1 71.7 38 7.2 45
18:35 1018 30.06 847 25.01 19.5 67.1 54 10.1 50.2
18:40 1018 30.06 847 25.01 17 62.6 65 10.4 50.8
18:45 1018 30.06 847 25.01 15.5 59.8 71 10.4 50.7
18:50 1018 30.06 847 25.01 15 59.1 68 9.2 48.6
18:55 1018 30.06 847 25.01 15.4 59.6 66 9.2 48.6
19:00 1018 30.06 847 25.01 15.5 59.8 66 9.2 48.5
19:05 1017 30.03 847 25.01 15.8 60.4 64 9 48.3
19:10 1017 30.03 847 25.01 16.2 61.1 59 8.1 46.6
19:15 1017 30.03 847 25.01 16.7 62.1 60 9 48.2
19:20 1018 30.06 847 25.01 16.5 61.8 64 9.7 49.5
19:25 1018 30.06 847 25.01 16.2 61.1 65 9.6 49.3
19:30 1018 30.06 847 25.01 16 60.8 66 9.7 49.5
19:35 1018 30.06 847 25.01 15.8 60.5 65 9.3 48.8
19:40 1018 30.06 847 25.01 15.7 60.3 64 9.1 48.3
19:45 1018 30.06 847 25.01 15.7 60.3 63 8.7 47.7
19:50 1018 30.06 847 25.01 15.8 60.5 62 8.6 47.5
19:55 1018 30.06 847 25.01 15.9 60.6 61 8.4 47.1
20:00 1018 30.06 847 25.01 15.9 60.6 61 8.5 47.3
20:05 1018 30.06 847 25.01 15.9 60.6 61 8.5 47.4
20:10 1018 30.06 847 25.01 15.7 60.3 62 8.5 47.2
20:15 1018 30.06 847 25.01 15.8 60.4 61 8.4 47.1
20:20 1018 30.06 847 25.01 15.8 60.4 62 8.5 47.3
20:25 1018 30.06 847 25.01 15.7 60.2 62 8.5 47.3
20:30 1018 30.06 847 25.01 15.6 60.1 62 8.5 47.3
20:35 1018 30.06 847 25.01 15.6 60.1 63 8.6 47.4
20:40 1018 30.06 847 25.01 15.6 60 62 8.4 47.1
20:45 1018 30.06 847 25.01 15.6 60.1 63 8.5 47.4
20:50 1018 30.06 847 25.01 15.6 60.1 61 8.2 46.8
20:55 1017 30.03 847 25.01 15.7 60.2 61 8.1 46.6
21:00 1017 30.03 847 25.01 15.8 60.4 60 8.1 46.6
21:05 1017 30.03 846 24.98 15.8 60.4 60 8 46.4
21:10 1017 30.03 846 24.98 15.8 60.4 59 7.9 46.2
21:15 1017 30.03 846 24.98 15.8 60.4 58 7.6 45.7
21:20 1017 30.03 846 24.98 15.9 60.5 58 7.7 45.9
21:25 1017 30.03 846 24.98 15.7 60.3 59 7.7 45.9
21:30 1017 30.03 846 24.98 15.6 60.1 60 7.9 46.3
21:35 1017 30.03 846 24.98 15.5 59.9 60 7.9 46.2
21:40 1017 30.03 846 24.98 15.4 59.8 59 7.6 45.7
21:45 1017 30.03 846 24.98 15.5 59.9 59 7.6 45.6
21:50 1017 30.03 846 24.98 15.4 59.7 59 7.4 45.3
21:55 1017 30.03 846 24.98 15.4 59.8 58 7.3 45.2
22:00 1017 30.03 846 24.98 15.4 59.8 58 7.3 45.1
22:05 1017 30.03 846 24.98 15.4 59.7 58 7.3 45.1
22:10 1017 30.03 846 24.98 15.4 59.6 59 7.4 45.3
22:15 1017 30.03 846 24.98 15.2 59.4 59 7.4 45.3
22:20 1017 30.03 846 24.98 15.1 59.2 60 7.5 45.5
22:25 1017 30.03 846 24.98 15.1 59.1 60 7.4 45.3
22:30 1017 30.03 846 24.98 15.1 59.2 60 7.6 45.6
22:35 1017 30.03 846 24.98 15 59 61 7.7 45.9
22:40 1017 30.03 846 24.98 14.9 58.8 62 7.7 45.8
22:45 1017 30.03 846 24.98 14.8 58.7 62 7.7 45.9
22:50 1017 30.03 846 24.98 14.8 58.6 62 7.6 45.6
22:55 1017 30.03 846 24.98 14.7 58.5 63 7.9 46.1
23:00 1017 30.03 846 24.98 14.6 58.2 63 7.7 45.9
23:05 1017 30.03 846 24.98 14.6 58.3 63 7.7 45.9
23:10 1017 30.03 846 24.98 14.6 58.2 62 7.5 45.5
23:15 1017 30.03 846 24.98 14.6 58.3 62 7.6 45.6
23:20 1017 30.03 846 24.98 14.5 58.1 64 7.8 46
23:25 1017 30.03 846 24.98 14.4 57.9 63 7.6 45.6
23:30 1017 30.03 846 24.98 14.3 57.7 64 7.6 45.8
23:35 1017 30.03 846 24.98 14.2 57.6 64 7.5 45.5
23:40 1017 30.03 846 24.98 14.2 57.6 64 7.7 45.8
23:45 1017 30.03 846 24.98 14.2 57.5 64 7.5 45.5
23:50 1017 30.03 847 25.01 14.2 57.6 64 7.7 45.8
23:55 1017 30.03 847 25.01 14 57.2 65 7.6 45.6
24:00 1017 30.03 847 25.01 14.1 57.3 62 7.1 44.7